Terminal Aerodrome Forecast
Issued by NWS Albany, NY

Home | Current Version | Previous Version | Text Only | Print | Product List | Glossary On
Versions: 1 2 3 4 5 6 7 8 9 10 11 12 13 14 15 16 17 18 19 20 21
000
FTUS41 KALY 220533
TAFALB
TAF
KALB 220533Z 2206/2306 00000KT 6SM BR VCSH OVC035
      TEMPO 2206/2209 4SM -RAPL BR OVC025
     FM220900 00000KT 5SM BR VCSH OVC015
      TEMPO 2210/2212 2SM -RAPL BR OVC009
     FM221200 VRB03KT 4SM BR VCSH OVC012
     FM222100 11005KT 2SM -RA BR OVC009=

USA.gov is the U.S. government's official web portal to all federal, state and local government web resources and services.